This is the latest recevied weather packets stored in our database for station/object OH2HCY. If no packets are shown the sender has not sent any weather packets the latest 10 day(s).
| Time | Temp. | Humidity | Pressure | Rain* | Wind** | Luminosity | Snow |
|---|---|---|---|---|---|---|---|
| 1777898265 | 9.44° C | 82% | 999.5 hPa | - | - | - | - |
| 1777897730 | 9.44° C | 80% | 999.4 hPa | - | - | - | - |
| 1777897165 | 8.89° C | 81% | 999.6 hPa | - | - | - | - |
| 1777896630 | 8.89° C | 82% | 999.8 hPa | - | - | - | - |
| 1777896098 | 8.89° C | 85% | 1000 hPa | - | - | - | - |
| 1777895590 | 8.89° C | 84% | 1000.1 hPa | - | - | - | - |
| 1777895005 | 8.89° C | 84% | 1000.1 hPa | - | - | - | - |
| 1777894455 | 8.89° C | 83% | 1000.1 hPa | - | - | - | - |
| 1777893940 | 8.89° C | 85% | 1000.1 hPa | - | - | - | - |
| 1777893403 | 8.89° C | 83% | 1000.2 hPa | - | - | - | - |
| 1777892845 | 8.89° C | 80% | 1000.3 hPa | - | - | - | - |
| 1777892325 | 8.89° C | 80% | 1000.3 hPa | - | - | - | - |
| 1777891805 | 8.89° C | 78% | 1000.3 hPa | - | - | - | - |
| 1777891255 | 9.44° C | 78% | 1000.3 hPa | - | - | - | - |
| 1777890715 | 9.44° C | 81% | 1000.4 hPa | - | - | - | - |
| 1777890195 | 9.44° C | 76% | 1000.4 hPa | - | - | - | - |
| 1777889650 | 9.44° C | 78% | 1000.6 hPa | - | - | - | - |
| 1777889105 | 10° C | 75% | 1000.7 hPa | - | - | - | - |
| 1777888565 | 10° C | 70% | 1000.7 hPa | - | - | - | - |
| 1777887995 | 10.56° C | 64% | 1000.6 hPa | - | - | - | - |
| 1777887439 | 11.11° C | 64% | 1000.5 hPa | - | - | - | - |
| 1777886880 | 11.11° C | 60% | 1000.3 hPa | - | - | - | - |
| 1777886350 | 11.67° C | 61% | 1000.2 hPa | - | - | - | - |
| 1777885830 | 11.67° C | 57% | 1000.3 hPa | - | - | - | - |
| 1777885320 | 11.67° C | 51% | 1000.1 hPa | - | - | - | - |
* Rain since midnight (hover to see other rain measurements)
** Current wind speed in m/s (hover to see current wind gust speed)